Time;durP1;ratioP1;P1;durP2;ratioP2;P2;SDS_P1;SDS_P2;PMS_P1;PMS_P2;Temp;Humidity;BMP_temperature;BMP_pressure;BME280_temperature;BME280_humidity;BME280_pressure;Samples;Min_cycle;Max_cycle;Signal;HPM_P1;HPM_P2
2023/07/18 00:02:14;;;;;;;1.53;1.37;;;21.70;76.60;;;22.19;nan;101185.50;4993522;28;20639;-65
2023/07/18 00:04:42;;;;;;;1.33;1.23;;;21.70;77.10;;;22.13;nan;101192.31;4987682;28;20633;-67
2023/07/18 00:07:09;;;;;;;1.17;1.10;;;21.60;77.50;;;22.03;nan;101196.16;4993211;28;20634;-68
2023/07/18 00:09:37;;;;;;;1.30;1.30;;;21.60;78.00;;;21.90;nan;101195.88;4989888;28;20686;-65
2023/07/18 00:12:05;;;;;;;1.43;1.33;;;21.50;78.70;;;21.86;nan;101195.38;4982316;28;20646;-64
2023/07/18 00:14:32;;;;;;;1.70;1.60;;;21.40;78.90;;;21.87;nan;101193.56;4982783;28;20636;-65
2023/07/18 00:16:59;;;;;;;1.90;1.50;;;21.40;79.30;;;21.82;nan;101191.41;4985813;28;20630;-65
2023/07/18 00:19:27;;;;;;;1.63;1.53;;;21.30;79.70;;;21.80;nan;101195.19;5003096;28;21245;-65
2023/07/18 00:21:55;;;;;;;2.17;1.70;;;21.30;80.10;;;21.77;nan;101198.19;4997040;28;20697;-65
2023/07/18 00:24:24;;;;;;;1.67;1.40;;;21.30;80.50;;;21.78;nan;101202.50;4987746;28;20638;-65
2023/07/18 00:26:51;;;;;;;1.67;1.50;;;21.20;80.80;;;21.79;nan;101197.03;4992164;28;20638;-65
2023/07/18 00:29:18;;;;;;;3.03;1.60;;;21.30;80.90;;;21.77;nan;101201.69;4992151;28;20677;-66
2023/07/18 00:31:45;;;;;;;3.83;1.80;;;21.30;81.20;;;21.74;nan;101193.22;4992838;28;20689;-65
2023/07/18 00:34:14;;;;;;;2.07;1.40;;;21.20;81.50;;;21.69;nan;101198.19;4996733;28;20629;-66
2023/07/18 00:36:41;;;;;;;1.47;1.37;;;21.20;82.00;;;21.64;nan;101196.88;4998311;28;20641;-66
2023/07/18 00:39:08;;;;;;;1.70;1.60;;;21.20;82.30;;;21.61;nan;101197.19;4991650;28;20662;-66
2023/07/18 00:41:35;;;;;;;1.00;1.00;;;21.10;82.80;;;21.60;nan;101197.38;4984603;28;20650;-65
2023/07/18 00:44:02;;;;;;;5.60;1.50;;;21.10;83.20;;;21.59;nan;101195.75;4990239;28;20692;-66
2023/07/18 00:46:29;;;;;;;7.90;1.33;;;21.10;83.50;;;21.57;nan;101198.53;4990125;28;20638;-65
2023/07/18 00:48:57;;;;;;;4.23;1.57;;;21.10;83.90;;;21.55;nan;101197.88;4979511;28;20685;-67
2023/07/18 00:51:25;;;;;;;2.20;1.57;;;21.00;84.20;;;21.53;nan;101197.22;4990234;28;20641;-66
2023/07/18 00:53:53;;;;;;;1.80;1.60;;;21.00;84.50;;;21.53;nan;101196.38;4997311;28;20634;-69
2023/07/18 00:56:20;;;;;;;2.30;1.47;;;21.00;84.80;;;21.49;nan;101197.72;4995206;28;20653;-65
2023/07/18 00:58:47;;;;;;;2.83;1.30;;;21.00;85.20;;;21.46;nan;101198.06;4973909;28;20662;-65
2023/07/18 01:01:15;;;;;;;1.70;1.60;;;21.00;85.60;;;21.43;nan;101199.22;4990066;28;20625;-65
2023/07/18 01:03:44;;;;;;;1.43;1.33;;;21.00;85.90;;;21.42;nan;101196.75;4978522;28;20647;-64
2023/07/18 01:06:11;;;;;;;1.23;1.13;;;21.00;86.40;;;21.45;nan;101193.75;4990278;28;20630;-64
2023/07/18 01:08:41;;;;;;;1.40;1.30;;;21.00;86.40;;;21.44;nan;101206.22;4989968;28;20681;-65
2023/07/18 01:11:08;;;;;;;1.20;1.10;;;21.00;86.80;;;21.40;nan;101194.22;4991464;28;21214;-64
2023/07/18 01:13:36;;;;;;;1.40;1.30;;;21.00;87.00;;;21.40;nan;101201.38;4989287;28;20646;-65
2023/07/18 01:16:04;;;;;;;1.67;1.33;;;20.90;87.40;;;21.29;nan;101202.56;4988306;28;20645;-64
2023/07/18 01:18:31;;;;;;;1.50;1.37;;;20.90;87.90;;;21.20;nan;101200.88;4988670;28;21032;-65
2023/07/18 01:20:59;;;;;;;1.20;1.20;;;20.80;88.20;;;21.11;nan;101196.56;4985741;28;20642;-67
2023/07/18 01:23:26;;;;;;;2.13;1.93;;;20.70;88.90;;;21.04;nan;101190.25;4972336;28;20666;-65
2023/07/18 01:25:54;;;;;;;1.27;1.17;;;20.60;89.40;;;20.96;nan;101192.84;4987562;28;20642;-68
2023/07/18 01:28:21;;;;;;;1.97;1.50;;;20.60;89.90;;;20.90;nan;101193.50;4990694;28;20650;-68
2023/07/18 01:30:48;;;;;;;1.27;1.17;;;20.50;90.20;;;20.79;nan;101189.34;4989704;28;20626;-64
2023/07/18 01:33:15;;;;;;;1.30;1.30;;;20.40;90.60;;;20.74;nan;101186.34;4991043;28;20602;-65
2023/07/18 01:35:43;;;;;;;1.60;1.50;;;20.40;90.90;;;20.67;nan;101177.41;4989654;28;20627;-67
2023/07/18 01:38:10;;;;;;;2.33;1.70;;;20.30;91.20;;;20.68;nan;101178.22;4991287;28;20642;-65
2023/07/18 01:40:39;;;;;;;3.83;1.50;;;20.30;91.50;;;20.67;nan;101177.41;4989539;28;20638;-65
2023/07/18 01:43:06;;;;;;;1.83;1.43;;;20.20;91.80;;;20.71;nan;101183.19;4983065;28;21187;-65
2023/07/18 01:45:33;;;;;;;2.00;1.90;;;20.20;92.00;;;20.68;nan;101173.75;4987945;28;20630;-66
2023/07/18 01:48:02;;;;;;;2.63;1.60;;;20.30;92.20;;;20.63;nan;101176.06;4990377;28;20669;-64
2023/07/18 01:50:29;;;;;;;2.30;1.27;;;20.20;92.40;;;20.60;nan;101173.72;4985434;28;20694;-65
2023/07/18 01:52:56;;;;;;;1.23;1.23;;;20.20;92.60;;;20.61;nan;101169.25;4994025;28;20630;-65
2023/07/18 01:55:23;;;;;;;1.20;1.10;;;20.20;92.80;;;20.60;nan;101167.59;4998247;28;20650;-67
2023/07/18 01:57:50;;;;;;;1.87;1.73;;;20.20;92.90;;;20.62;nan;101165.59;4994677;28;22459;-65
2023/07/18 02:00:19;;;;;;;3.73;1.80;;;20.20;93.10;;;20.62;nan;101170.91;4995166;28;20638;-66
2023/07/18 02:02:52;;;;;;;2.60;1.80;;;20.20;93.10;;;20.62;nan;101165.59;5013415;28;20640;-66
2023/07/18 02:05:32;;;;;;;2.07;1.67;;;20.20;93.30;;;20.64;nan;101163.63;5006611;28;20638;-65
2023/07/18 02:07:59;;;;;;;2.07;1.80;;;20.20;93.40;;;20.64;nan;101164.44;4997535;28;20677;-67
2023/07/18 02:10:29;;;;;;;1.97;1.60;;;20.20;93.50;;;20.67;nan;101161.50;5007853;28;20666;-64
2023/07/18 02:13:01;;;;;;;1.70;1.60;;;20.20;93.50;;;20.67;nan;101160.66;4980486;28;20629;-65
2023/07/18 02:15:28;;;;;;;1.80;1.70;;;20.20;93.60;;;20.69;nan;101163.97;5010783;28;20641;-65
2023/07/18 02:17:56;;;;;;;2.07;1.80;;;20.20;93.70;;;20.64;nan;101159.16;4989895;28;20668;-68
2023/07/18 02:20:23;;;;;;;1.90;1.80;;;20.20;93.70;;;20.60;nan;101164.94;4992812;28;20645;-67
2023/07/18 02:22:50;;;;;;;2.67;1.47;;;20.20;93.90;;;20.58;nan;101156.31;4993774;28;20644;-65
2023/07/18 02:25:17;;;;;;;2.47;1.90;;;20.20;94.10;;;20.54;nan;101150.50;4997892;28;20649;-65
2023/07/18 02:27:46;;;;;;;2.90;1.90;;;20.20;94.20;;;20.53;nan;101159.44;4994069;28;20684;-64
2023/07/18 02:30:14;;;;;;;1.70;1.60;;;20.20;94.50;;;20.51;nan;101156.13;4998737;28;21321;-65
2023/07/18 02:32:42;;;;;;;2.77;1.73;;;20.10;94.50;;;20.48;nan;101148.53;5011832;28;20613;-65
2023/07/18 02:35:11;;;;;;;1.70;1.60;;;20.10;94.70;;;20.46;nan;101154.97;5005831;28;20635;-65
2023/07/18 02:37:38;;;;;;;2.10;1.63;;;20.10;94.80;;;20.42;nan;101151.78;4993635;28;21297;-65
2023/07/18 02:40:09;;;;;;;1.50;1.40;;;20.00;94.90;;;20.41;nan;101150.16;4991248;28;20638;-65
2023/07/18 02:42:38;;;;;;;1.40;1.30;;;20.00;95.10;;;20.38;nan;101152.28;4992584;28;20618;-65
2023/07/18 02:45:08;;;;;;;2.80;1.80;;;20.00;95.20;;;20.34;nan;101156.22;5003666;28;21028;-65
2023/07/18 02:47:36;;;;;;;1.67;1.57;;;20.00;95.30;;;20.27;nan;101152.59;5011498;28;20645;-65
2023/07/18 02:50:03;;;;;;;1.10;1.10;;;19.90;95.50;;;20.19;nan;101144.56;5000444;28;20983;-65
2023/07/18 02:52:31;;;;;;;1.40;1.30;;;19.80;95.80;;;20.18;nan;101145.56;4974197;28;20978;-65
2023/07/18 02:54:58;;;;;;;1.37;1.27;;;19.80;96.00;;;20.11;nan;101143.53;5003800;28;20633;-67
2023/07/18 02:57:26;;;;;;;1.37;1.30;;;19.80;96.10;;;20.08;nan;101143.03;4993359;28;21058;-65
2023/07/18 02:59:53;;;;;;;5.27;1.40;;;19.70;96.30;;;20.04;nan;101137.22;4990910;28;20692;-64
2023/07/18 03:02:20;;;;;;;1.83;1.63;;;19.70;96.60;;;20.01;nan;101140.19;4983656;28;20641;-65
2023/07/18 03:04:48;;;;;;;1.60;1.27;;;19.70;96.80;;;20.00;nan;101142.97;4992540;28;21005;-65
2023/07/18 03:07:17;;;;;;;1.83;1.67;;;19.70;96.90;;;19.91;nan;101147.41;4992768;28;20634;-66
2023/07/18 03:09:45;;;;;;;2.87;1.40;;;19.60;97.10;;;19.87;nan;101142.59;4993183;28;20805;-68
2023/07/18 03:12:13;;;;;;;1.57;1.47;;;19.50;97.40;;;19.80;nan;101147.72;4992626;28;21380;-64
2023/07/18 03:14:41;;;;;;;1.73;1.50;;;19.50;97.50;;;19.76;nan;101145.53;4992438;28;20626;-65
2023/07/18 03:17:08;;;;;;;7.70;1.40;;;19.40;97.80;;;19.76;nan;101146.34;4990725;28;21053;-65
2023/07/18 03:19:35;;;;;;;1.57;1.53;;;19.50;97.80;;;19.77;nan;101150.66;4992450;28;21327;-65
2023/07/18 03:22:02;;;;;;;2.60;1.87;;;19.40;98.30;;;19.72;nan;101152.13;4991148;28;21194;-65
2023/07/18 03:24:30;;;;;;;1.43;1.33;;;19.40;98.30;;;19.68;nan;101156.03;4999583;28;21204;-66
2023/07/18 03:26:57;;;;;;;1.57;1.47;;;19.30;98.60;;;19.67;nan;101151.75;4990935;28;20696;-65
2023/07/18 03:29:24;;;;;;;1.60;1.50;;;19.30;98.90;;;19.72;nan;101154.78;4992995;28;20662;-65
2023/07/18 03:31:51;;;;;;;1.23;1.00;;;19.40;99.00;;;19.74;nan;101158.91;4991771;28;21185;-65
2023/07/18 03:34:18;;;;;;;1.83;1.60;;;19.40;99.10;;;19.74;nan;101158.09;4992330;28;21198;-65
2023/07/18 03:36:45;;;;;;;1.50;1.40;;;19.40;99.20;;;19.69;nan;101161.22;4991445;28;20627;-66
2023/07/18 03:39:13;;;;;;;1.40;1.30;;;19.30;99.20;;;19.69;nan;101153.25;4991611;28;21017;-65
2023/07/18 03:41:40;;;;;;;1.63;1.57;;;19.30;99.40;;;19.72;nan;101152.94;4989606;28;20630;-63
2023/07/18 03:44:08;;;;;;;1.73;1.60;;;19.40;99.50;;;19.73;nan;101157.25;4978954;28;20638;-67
2023/07/18 03:46:35;;;;;;;1.03;1.03;;;19.40;99.50;;;19.69;nan;101155.91;4995114;28;20637;-65
2023/07/18 03:49:02;;;;;;;1.57;1.47;;;19.40;99.60;;;19.65;nan;101156.38;4991696;28;20760;-65
2023/07/18 03:51:29;;;;;;;1.50;1.40;;;19.30;99.70;;;19.58;nan;101150.88;4975439;28;20637;-64
2023/07/18 03:54:00;;;;;;;1.20;1.10;;;19.20;99.90;;;19.52;nan;101154.16;4980773;28;21035;-64
2023/07/18 03:56:30;;;;;;;1.10;1.10;;;19.20;99.90;;;19.48;nan;101158.09;4994750;28;20642;-67
2023/07/18 03:58:57;;;;;;;1.70;1.60;;;19.20;99.90;;;19.48;nan;101152.78;4990756;28;20658;-67
2023/07/18 04:01:25;;;;;;;1.57;1.47;;;19.20;99.90;;;19.46;nan;101153.94;4990838;28;20642;-65
2023/07/18 04:03:53;;;;;;;1.97;1.80;;;19.10;99.90;;;19.52;nan;101145.38;4990761;28;20673;-66
2023/07/18 04:06:20;;;;;;;2.50;1.50;;;19.20;99.90;;;19.60;nan;101148.91;5002578;28;20687;-65
2023/07/18 04:08:47;;;;;;;1.80;1.50;;;19.20;99.90;;;19.66;nan;101153.56;5000324;28;20674;-65
2023/07/18 04:11:16;;;;;;;1.80;1.67;;;19.30;99.90;;;19.74;nan;101160.75;4991172;28;20641;-65
2023/07/18 04:13:43;;;;;;;1.40;1.40;;;19.40;99.90;;;19.85;nan;101149.84;4990775;28;20656;-65
2023/07/18 04:16:11;;;;;;;2.00;1.90;;;19.50;99.90;;;19.97;nan;101148.63;5000834;28;21013;-66
2023/07/18 04:18:38;;;;;;;1.33;1.23;;;19.60;99.90;;;20.16;nan;101147.53;4995268;28;20716;-67
2023/07/18 04:21:05;;;;;;;2.23;1.43;;;19.70;99.90;;;20.32;nan;101155.56;5003565;28;20648;-65
2023/07/18 04:23:32;;;;;;;1.57;1.47;;;19.90;99.90;;;20.46;nan;101149.66;5003515;28;20639;-65
2023/07/18 04:26:01;;;;;;;1.47;1.37;;;20.00;99.70;;;20.62;nan;101150.53;4986032;28;20685;-65
2023/07/18 04:28:34;;;;;;;3.53;1.57;;;20.20;99.50;;;20.79;nan;101157.53;4975350;28;20657;-67
2023/07/18 04:31:02;;;;;;;1.23;1.20;;;20.40;99.20;;;20.93;nan;101145.44;4989867;28;20670;-65
2023/07/18 04:33:37;;;;;;;4.40;1.53;;;20.50;99.00;;;21.09;nan;101142.00;4993842;28;20625;-65
2023/07/18 04:36:06;;;;;;;1.80;1.70;;;20.70;98.70;;;21.22;nan;101142.31;4979987;28;20625;-66
2023/07/18 04:38:35;;;;;;;1.40;1.30;;;20.80;98.50;;;21.33;nan;101145.47;4976654;28;20661;-65
2023/07/18 04:41:05;;;;;;;3.03;1.67;;;20.90;98.20;;;21.46;nan;101144.97;4965716;28;20646;-66
2023/07/18 04:43:32;;;;;;;3.30;2.10;;;21.00;98.00;;;21.59;nan;101137.31;4986287;28;20618;-65
2023/07/18 04:45:59;;;;;;;2.50;2.20;;;21.20;97.80;;;21.82;nan;101148.03;4992280;28;20628;-65
2023/07/18 04:48:26;;;;;;;4.90;2.07;;;21.40;97.50;;;22.01;nan;101142.38;4985695;28;21405;-67
2023/07/18 04:50:59;;;;;;;2.33;2.20;;;21.60;97.20;;;22.26;nan;101146.56;4996781;28;20769;-66
2023/07/18 04:53:28;;;;;;;3.20;2.43;;;21.80;96.80;;;22.45;nan;101142.66;4991248;28;20637;-66
2023/07/18 04:55:56;;;;;;;2.70;2.50;;;22.00;96.50;;;22.57;nan;101144.75;5001780;28;20639;-64
2023/07/18 04:58:25;;;;;;;1.60;1.50;;;22.10;96.10;;;22.69;nan;101139.88;4990296;28;20638;-65
2023/07/18 05:00:56;;;;;;;2.63;2.20;;;22.20;95.90;;;22.76;nan;101136.38;4990160;28;20645;-65
2023/07/18 05:03:25;;;;;;;4.03;2.30;;;22.30;95.70;;;22.95;nan;101146.53;4989930;28;21221;-66
2023/07/18 05:05:53;;;;;;;2.00;1.77;;;22.50;95.40;;;23.14;nan;101138.06;4988911;28;20634;-69
2023/07/18 05:08:21;;;;;;;2.10;1.87;;;22.70;95.10;;;23.36;nan;101139.03;4989852;28;21037;-65
2023/07/18 05:10:49;;;;;;;3.60;1.87;;;22.90;94.80;;;23.59;nan;101133.66;4989982;28;20688;-65
2023/07/18 05:13:16;;;;;;;2.40;1.80;;;23.10;94.40;;;23.85;nan;101142.06;4989830;28;20615;-69
2023/07/18 05:15:44;;;;;;;2.90;1.87;;;23.30;93.90;;;24.03;nan;101136.31;4991018;28;21460;-65
2023/07/18 05:18:12;;;;;;;2.13;1.40;;;23.50;93.80;;;24.27;nan;101142.22;4968186;28;20674;-65
2023/07/18 05:20:40;;;;;;;2.27;2.07;;;23.80;93.60;;;24.51;nan;101131.22;4997439;28;20617;-64
2023/07/18 05:23:08;;;;;;;1.90;1.80;;;24.00;93.30;;;24.79;nan;101138.53;5005742;28;21173;-66
2023/07/18 05:25:37;;;;;;;2.30;2.10;;;24.30;92.90;;;25.01;nan;101142.84;5007424;28;20652;-65
2023/07/18 05:28:06;;;;;;;1.33;1.20;;;24.50;92.60;;;25.15;nan;101134.75;4995542;28;20654;-66
2023/07/18 05:30:33;;;;;;;2.77;2.20;;;24.70;92.40;;;25.08;nan;101138.38;4994526;28;20668;-65
2023/07/18 05:33:01;;;;;;;2.87;1.70;;;24.70;92.30;;;25.15;nan;101133.94;4991433;28;20637;-65
2023/07/18 05:35:28;;;;;;;2.50;2.30;;;24.80;92.20;;;25.30;nan;101124.81;4975213;28;20592;-66
2023/07/18 05:37:56;;;;;;;3.17;2.60;;;24.80;92.10;;;25.49;nan;101128.66;4987291;28;20670;-64
2023/07/18 05:40:23;;;;;;;2.23;1.83;;;25.00;91.90;;;25.72;nan;101137.25;4994869;28;20615;-66
2023/07/18 05:42:50;;;;;;;2.73;2.10;;;25.20;91.80;;;25.86;nan;101130.13;4992777;28;20634;-65
2023/07/18 05:45:17;;;;;;;2.37;2.17;;;25.40;91.50;;;26.13;nan;101131.94;5001555;28;20629;-65
2023/07/18 05:47:44;;;;;;;2.13;2.00;;;25.60;90.90;;;26.36;nan;101134.31;4989921;28;20638;-66
2023/07/18 05:50:12;;;;;;;2.83;2.10;;;25.80;90.50;;;26.46;nan;101130.22;4996333;28;20674;-66
2023/07/18 05:52:39;;;;;;;4.07;2.53;;;26.00;90.20;;;26.66;nan;101130.28;4991585;28;20638;-65
2023/07/18 05:55:07;;;;;;;2.90;2.43;;;26.20;89.80;;;26.84;nan;101131.38;5001385;28;20625;-67
2023/07/18 05:57:34;;;;;;;1.67;1.57;;;26.40;88.80;;;26.87;nan;101132.81;4996765;28;20979;-67
2023/07/18 06:00:05;;;;;;;2.43;2.23;;;26.40;87.60;;;27.07;nan;101133.63;4997866;28;20638;-66
2023/07/18 06:02:34;;;;;;;2.20;2.00;;;26.60;86.70;;;27.38;nan;101125.84;4994106;28;20641;-66
2023/07/18 06:05:01;;;;;;;2.30;2.20;;;26.90;85.90;;;27.56;nan;101123.34;4996832;28;20660;-67
2023/07/18 06:07:28;;;;;;;2.40;2.20;;;27.10;85.10;;;27.90;nan;101129.47;4999751;28;20657;-67
2023/07/18 06:09:55;;;;;;;2.33;2.10;;;27.40;84.10;;;28.16;nan;101124.00;4990695;28;20674;-65
2023/07/18 06:12:22;;;;;;;4.20;2.00;;;27.60;83.60;;;28.53;nan;101123.22;4990612;28;20931;-65
2023/07/18 06:14:49;;;;;;;2.40;2.20;;;28.00;82.50;;;28.92;nan;101125.66;4994349;28;20634;-66
2023/07/18 06:17:16;;;;;;;5.23;2.20;;;28.30;81.20;;;29.14;nan;101132.31;4994277;28;20998;-70
2023/07/18 06:19:46;;;;;;;2.50;2.30;;;28.60;79.80;;;29.22;nan;101125.84;4993037;28;20684;-66
2023/07/18 06:22:13;;;;;;;5.33;2.30;;;28.80;78.70;;;29.61;nan;101125.47;4993846;28;20782;-68
2023/07/18 06:24:41;;;;;;;2.67;2.30;;;29.10;77.40;;;30.07;nan;101122.28;4992491;28;21008;-67
2023/07/18 06:27:08;;;;;;;2.47;2.27;;;29.40;76.30;;;30.29;nan;101120.78;4995289;28;20665;-69
2023/07/18 06:29:35;;;;;;;1.70;1.60;;;29.70;75.20;;;30.54;nan;101126.03;5001561;28;20661;-69
2023/07/18 06:32:04;;;;;;;2.17;1.40;;;29.90;74.50;;;30.48;nan;101125.09;4982358;28;20638;-68
2023/07/18 06:34:33;;;;;;;2.23;2.03;;;30.00;73.70;;;30.81;nan;101119.22;4993270;28;20626;-70
2023/07/18 06:37:02;;;;;;;2.00;1.90;;;30.30;73.20;;;31.16;nan;101125.50;4996992;28;20642;-68
2023/07/18 06:39:29;;;;;;;2.50;2.30;;;30.70;72.00;;;31.63;nan;101120.97;4990181;28;20658;-70
2023/07/18 06:41:57;;;;;;;3.50;2.50;;;31.10;71.10;;;32.24;nan;101114.16;4992333;28;20630;-69
2023/07/18 06:44:24;;;;;;;2.30;2.20;;;31.60;69.80;;;32.89;nan;101116.19;4995127;28;20673;-70
2023/07/18 06:46:53;;;;;;;2.43;2.13;;;32.30;68.20;;;33.48;nan;101120.09;5003594;28;20736;-69
2023/07/18 06:49:20;;;;;;;2.23;1.73;;;32.90;66.20;;;33.83;nan;101113.56;4971237;28;20662;-68
2023/07/18 06:51:49;;;;;;;2.57;2.37;;;33.40;64.90;;;34.42;nan;101109.94;4989239;28;20672;-69
2023/07/18 06:54:17;;;;;;;2.60;2.40;;;33.90;63.50;;;34.97;nan;101113.19;5003030;28;20657;-69
2023/07/18 06:56:45;;;;;;;5.53;2.27;;;34.50;61.80;;;35.39;nan;101110.53;4991773;28;20639;-69
2023/07/18 06:59:15;;;;;;;2.77;2.20;;;34.90;60.80;;;36.08;nan;101113.09;4991832;28;20664;-70
2023/07/18 07:01:42;;;;;;;2.10;1.97;;;35.60;59.70;;;36.57;nan;101106.97;4990911;28;20639;-69
2023/07/18 07:04:10;;;;;;;2.50;2.27;;;36.10;58.20;;;37.24;nan;101106.72;4992085;28;21240;-69
2023/07/18 07:06:41;;;;;;;2.10;2.00;;;36.60;56.80;;;38.02;nan;101102.41;4991266;28;20652;-72
2023/07/18 07:09:15;;;;;;;2.43;2.10;;;37.40;55.80;;;38.56;nan;101099.63;4991945;28;20668;-69
2023/07/18 07:11:43;;;;;;;1.70;1.67;;;37.90;54.20;;;38.99;nan;101097.13;4992505;28;20673;-69
2023/07/18 07:14:11;;;;;;;2.10;2.00;;;38.40;51.60;;;39.58;nan;101097.63;4991806;28;20672;-69
2023/07/18 07:16:39;;;;;;;1.77;1.67;;;38.90;49.90;;;39.70;nan;101092.56;4968690;28;21000;-70
2023/07/18 07:19:06;;;;;;;1.67;1.63;;;39.30;47.90;;;39.98;nan;101097.13;4988190;28;20709;-73
2023/07/18 07:21:33;;;;;;;3.20;2.10;;;39.40;47.10;;;40.17;nan;101097.13;4992823;28;20634;-69
2023/07/18 07:24:02;;;;;;;1.63;1.60;;;39.70;46.20;;;40.27;nan;101094.28;5001565;28;21008;-69
2023/07/18 07:26:29;;;;;;;2.20;2.10;;;39.90;45.40;;;40.43;nan;101098.41;5002022;28;21219;-69
2023/07/18 07:28:56;;;;;;;1.67;1.60;;;40.00;45.30;;;40.59;nan;101086.13;5009611;28;20675;-71
2023/07/18 07:31:23;;;;;;;2.00;1.90;;;40.20;44.90;;;40.50;nan;101087.94;4991346;28;20774;-70
2023/07/18 07:33:52;;;;;;;1.70;1.60;;;40.20;44.60;;;40.64;nan;101086.03;4992246;28;20645;-70
2023/07/18 07:36:20;;;;;;;1.60;1.50;;;40.30;44.60;;;40.85;nan;101081.06;5000753;28;20634;-70
2023/07/18 07:38:48;;;;;;;1.90;1.80;;;40.50;44.60;;;41.26;nan;101078.41;4997524;28;20666;-67
2023/07/18 07:41:16;;;;;;;1.97;1.87;;;40.80;45.00;;;41.78;nan;101077.91;4989951;28;20634;-69
2023/07/18 07:43:43;;;;;;;1.70;1.60;;;41.30;43.60;;;42.05;nan;101072.41;4991187;28;20638;-72
2023/07/18 07:46:10;;;;;;;1.70;1.70;;;41.60;43.00;;;41.93;nan;101072.09;4993240;28;20699;-69
2023/07/18 07:48:38;;;;;;;1.70;1.70;;;41.60;42.80;;;41.85;nan;101063.81;4991975;28;20670;-70
2023/07/18 07:51:05;;;;;;;1.80;1.77;;;41.70;42.00;;;41.78;nan;101060.66;4985932;28;21046;-70
2023/07/18 07:53:32;;;;;;;1.30;1.30;;;41.60;41.80;;;42.14;nan;101056.03;4994701;28;20641;-69
2023/07/18 07:55:59;;;;;;;3.03;1.83;;;41.90;41.60;;;41.85;nan;101058.31;4991999;28;20642;-69
2023/07/18 07:58:26;;;;;;;1.70;1.70;;;41.70;41.40;;;41.66;nan;101058.44;4989921;28;20650;-69
2023/07/18 08:00:53;;;;;;;1.43;1.43;;;41.40;41.50;;;41.63;nan;101054.38;4997162;28;20649;-69
2023/07/18 08:03:20;;;;;;;1.83;1.73;;;41.40;41.50;;;41.95;nan;101041.63;4988455;28;20646;-68
2023/07/18 08:05:47;;;;;;;1.57;1.50;;;41.60;41.20;;;42.05;nan;101047.72;5008093;28;20695;-70
2023/07/18 08:08:14;;;;;;;1.47;1.47;;;41.70;41.00;;;41.78;nan;101047.78;4999708;28;20681;-69
2023/07/18 08:10:41;;;;;;;2.20;2.10;;;41.60;40.90;;;41.62;nan;101043.69;4990919;28;20670;-71
2023/07/18 08:13:08;;;;;;;1.93;1.93;;;41.60;40.90;;;41.71;nan;101039.16;5001294;28;21233;-68
2023/07/18 08:15:35;;;;;;;1.93;1.83;;;41.60;40.90;;;41.93;nan;101033.72;4995137;28;20630;-70
2023/07/18 08:18:02;;;;;;;1.50;1.47;;;41.90;40.50;;;42.10;nan;101031.16;4992514;28;20669;-69
2023/07/18 08:20:32;;;;;;;2.10;2.00;;;42.00;40.40;;;42.58;nan;101027.78;5000462;28;20633;-69
2023/07/18 08:22:59;;;;;;;1.90;1.73;;;42.40;40.60;;;43.08;nan;101026.47;5001709;28;20638;-71
2023/07/18 08:25:26;;;;;;;1.43;1.43;;;42.80;39.70;;;43.22;nan;101021.66;5005605;28;21224;-70
2023/07/18 08:27:53;;;;;;;2.00;1.90;;;43.00;39.50;;;43.15;nan;101024.88;5006025;28;21268;-71
2023/07/18 08:30:21;;;;;;;3.80;1.90;;;43.00;39.50;;;43.13;nan;101018.06;4991596;28;21472;-70
2023/07/18 08:32:48;;;;;;;1.87;1.77;;;43.00;39.20;;;42.84;nan;101017.78;4989730;28;20632;-72
2023/07/18 08:35:15;;;;;;;1.67;1.67;;;43.00;39.10;;;42.77;nan;101020.97;5001440;28;21217;-70
2023/07/18 08:37:42;;;;;;;1.60;1.60;;;42.80;39.00;;;43.08;nan;101012.75;4999112;28;20642;-70
2023/07/18 08:40:09;;;;;;;1.80;1.80;;;43.00;39.20;;;43.25;nan;101012.84;4990897;28;20626;-70
2023/07/18 08:42:37;;;;;;;2.03;1.93;;;43.20;38.80;;;43.31;nan;101016.22;4970730;28;20688;-70
2023/07/18 08:45:07;;;;;;;1.80;1.70;;;43.30;39.00;;;43.66;nan;100988.50;4990868;28;20646;-70
2023/07/18 08:47:37;;;;;;;1.70;1.70;;;43.50;38.90;;;43.92;nan;100992.09;4984307;28;20633;-71
2023/07/18 08:50:05;;;;;;;1.37;1.37;;;43.60;38.90;;;43.56;nan;100988.00;4998827;28;20625;-70
2023/07/18 08:52:32;;;;;;;2.40;2.10;;;43.20;38.40;;;43.00;nan;100986.06;4984835;28;20768;-70
2023/07/18 08:55:00;;;;;;;1.77;1.67;;;42.60;39.10;;;42.00;nan;100978.47;4987030;28;20646;-69
2023/07/18 08:57:27;;;;;;;1.90;1.50;;;41.70;39.20;;;40.81;nan;100970.56;4985948;28;20622;-69
2023/07/18 08:59:54;;;;;;;1.40;1.37;;;40.40;39.70;;;39.41;nan;100952.53;4989823;28;20677;-70
2023/07/18 09:02:21;;;;;;;1.87;1.77;;;39.10;40.70;;;38.02;nan;100941.66;4989792;28;20645;-69
2023/07/18 09:04:48;;;;;;;1.77;1.67;;;37.60;41.30;;;36.86;nan;100932.38;4990085;28;20692;-70
2023/07/18 09:07:17;;;;;;;1.33;1.30;;;36.40;42.10;;;35.60;nan;100927.75;4993626;28;20634;-69
2023/07/18 09:09:47;;;;;;;3.00;1.20;;;35.20;43.00;;;34.67;nan;100927.84;4991113;28;20666;-69
2023/07/18 09:12:15;;;;;;;4.50;1.47;;;34.20;44.10;;;33.82;nan;100917.06;4990349;28;20681;-69
2023/07/18 09:14:42;;;;;;;1.33;1.33;;;33.30;44.70;;;33.32;nan;100920.00;4990672;28;20627;-72
2023/07/18 09:17:10;;;;;;;1.60;1.50;;;32.80;45.30;;;32.89;nan;100921.59;4987091;28;20635;-69
2023/07/18 09:19:48;;;;;;;1.93;1.40;;;32.40;46.30;;;32.69;nan;100920.50;4990073;28;20725;-68
2023/07/18 09:22:17;;;;;;;1.40;1.40;;;32.10;47.10;;;32.37;nan;100909.44;4969823;28;20643;-69
2023/07/18 09:24:46;;;;;;;1.47;1.37;;;31.80;47.30;;;32.10;nan;100889.56;4987342;28;20639;-70
2023/07/18 09:27:17;;;;;;;1.43;1.33;;;31.60;47.50;;;31.74;nan;100895.38;4983139;28;20626;-67
2023/07/18 09:29:47;;;;;;;1.47;1.37;;;31.30;47.90;;;31.41;nan;100885.34;4964093;28;20671;-72
2023/07/18 09:32:20;;;;;;;0.83;0.83;;;30.90;48.30;;;31.10;nan;100891.97;4989286;28;20670;-68
2023/07/18 09:34:59;;;;;;;1.37;1.27;;;30.60;48.70;;;30.76;nan;100881.19;4978164;28;20706;-69
2023/07/18 09:37:27;;;;;;;2.10;1.83;;;30.20;48.80;;;30.64;nan;100890.09;4991116;28;20645;-68
2023/07/18 09:39:54;;;;;;;3.70;1.27;;;30.10;49.20;;;30.76;nan;100908.13;4990852;28;20701;-69
2023/07/18 09:42:24;;;;;;;1.10;1.00;;;30.10;49.30;;;30.64;nan;100910.84;4988254;28;20707;-67
2023/07/18 09:44:51;;;;;;;2.80;1.33;;;30.10;49.00;;;30.50;nan;100918.34;4993138;28;21066;-70
2023/07/18 09:47:20;;;;;;;1.73;1.23;;;29.90;49.30;;;30.35;nan;100923.34;4988862;28;20651;-70
2023/07/18 09:49:47;;;;;;;1.33;1.23;;;29.80;49.40;;;30.20;nan;100922.94;4985995;28;20662;-70
2023/07/18 09:52:15;;;;;;;1.00;1.00;;;29.60;49.50;;;30.17;nan;100931.50;4995715;28;20666;-69
2023/07/18 09:54:43;;;;;;;1.20;1.20;;;29.60;49.70;;;30.22;nan;100926.22;4995091;28;21473;-69
2023/07/18 09:57:12;;;;;;;1.20;1.10;;;29.60;49.60;;;30.37;nan;100926.63;4975940;28;20630;-68
2023/07/18 09:59:40;;;;;;;1.90;1.23;;;29.80;49.70;;;30.53;nan;100931.34;4972487;28;20671;-68
2023/07/18 10:02:10;;;;;;;2.13;2.00;;;29.90;49.70;;;30.85;nan;100923.72;4984490;28;20638;-69
2023/07/18 10:04:38;;;;;;;1.90;1.80;;;30.20;49.50;;;31.29;nan;100919.56;4999343;28;21228;-69
2023/07/18 10:07:11;;;;;;;1.50;1.40;;;30.70;49.40;;;31.75;nan;100938.31;4993396;28;20654;-70
2023/07/18 10:09:39;;;;;;;1.03;1.00;;;31.20;48.80;;;31.76;nan;100939.94;4991913;28;20669;-69
2023/07/18 10:12:07;;;;;;;3.00;1.50;;;31.30;48.20;;;31.55;nan;100946.00;4993281;28;20723;-69
2023/07/18 10:14:52;;;;;;;1.43;1.30;;;31.10;48.20;;;31.31;nan;100941.69;4996676;28;20629;-69
2023/07/18 10:17:39;;;;;;;1.50;1.40;;;30.90;48.40;;;31.38;nan;100928.91;4993790;28;20676;-71
2023/07/18 10:20:24;;;;;;;1.63;1.60;;;30.80;48.60;;;31.53;nan;100933.81;4977250;28;20634;-69
2023/07/18 10:22:57;;;;;;;1.40;1.30;;;30.90;48.60;;;31.54;nan;100922.78;5011896;28;21046;-69
2023/07/18 10:25:30;;;;;;;1.17;1.17;;;30.90;48.90;;;31.53;nan;100904.16;4998998;28;20649;-69
2023/07/18 10:27:59;;;;;;;0.80;0.80;;;30.90;49.10;;;31.25;nan;100876.09;4993213;28;20688;-69
2023/07/18 10:30:47;;;;;;;1.00;1.00;;;30.70;48.90;;;30.89;nan;100841.41;4983381;28;20648;-67